Terminal Aerodrome Forecast
Issued by NWS

Current Version | Previous Version | Text Only | Print | Product List | Glossary On
Versions: 1 2 3 4 5 6 7 8 9 10 11 12
000
FTUS46 KHNX 132300
TAFMCE
TAF
KMCE 132320Z 1400/1424 30009KT P6SM FEW250
     FM140600 32005KT P6SM SCT200
     FM141800 31006KT P6SM BKN120=

USA.gov is the U.S. government's official web portal to all federal, state and local government web resources and services.